sensor_id;sensor_type;location;lat;lon;timestamp;temperature;humidity
6940;DHT22;3509;48.510;9.076;2022-07-10T00:00:28;16.20;99.90
6940;DHT22;3509;48.510;9.076;2022-07-10T00:02:55;16.20;99.90
6940;DHT22;3509;48.510;9.076;2022-07-10T00:05:22;16.20;99.90
6940;DHT22;3509;48.510;9.076;2022-07-10T00:07:48;16.20;99.90
6940;DHT22;3509;48.510;9.076;2022-07-10T00:10:15;16.10;99.90
6940;DHT22;3509;48.510;9.076;2022-07-10T00:12:40;16.10;99.90
6940;DHT22;3509;48.510;9.076;2022-07-10T00:15:06;16.00;99.90
6940;DHT22;3509;48.510;9.076;2022-07-10T00:17:32;16.00;99.90
6940;DHT22;3509;48.510;9.076;2022-07-10T00:19:59;16.00;99.90
6940;DHT22;3509;48.510;9.076;2022-07-10T00:22:25;15.90;99.90
6940;DHT22;3509;48.510;9.076;2022-07-10T00:24:50;15.90;99.90
6940;DHT22;3509;48.510;9.076;2022-07-10T00:27:19;15.90;99.90
6940;DHT22;3509;48.510;9.076;2022-07-10T00:29:45;15.90;99.90
6940;DHT22;3509;48.510;9.076;2022-07-10T00:32:11;15.90;99.90
6940;DHT22;3509;48.510;9.076;2022-07-10T00:34:37;15.80;99.90
6940;DHT22;3509;48.510;9.076;2022-07-10T00:37:03;15.80;99.90
6940;DHT22;3509;48.510;9.076;2022-07-10T00:39:30;15.70;99.90
6940;DHT22;3509;48.510;9.076;2022-07-10T00:42:05;15.70;99.90
6940;DHT22;3509;48.510;9.076;2022-07-10T00:44:30;15.70;99.90
6940;DHT22;3509;48.510;9.076;2022-07-10T00:46:56;15.80;99.90
6940;DHT22;3509;48.510;9.076;2022-07-10T00:49:22;15.70;99.90
6940;DHT22;3509;48.510;9.076;2022-07-10T00:51:47;15.60;99.90
6940;DHT22;3509;48.510;9.076;2022-07-10T00:54:13;15.60;99.90
6940;DHT22;3509;48.510;9.076;2022-07-10T00:56:39;15.60;99.90
6940;DHT22;3509;48.510;9.076;2022-07-10T00:59:05;15.60;99.90
6940;DHT22;3509;48.510;9.076;2022-07-10T01:01:32;15.60;99.90
6940;DHT22;3509;48.510;9.076;2022-07-10T01:03:58;15.60;99.90
6940;DHT22;3509;48.510;9.076;2022-07-10T01:06:23;15.60;99.90
6940;DHT22;3509;48.510;9.076;2022-07-10T01:08:49;15.70;99.90
6940;DHT22;3509;48.510;9.076;2022-07-10T01:11:15;15.60;99.90
6940;DHT22;3509;48.510;9.076;2022-07-10T01:13:42;15.60;99.90
6940;DHT22;3509;48.510;9.076;2022-07-10T01:16:09;15.60;99.90
6940;DHT22;3509;48.510;9.076;2022-07-10T01:18:34;15.50;99.90
6940;DHT22;3509;48.510;9.076;2022-07-10T01:21:00;15.40;99.90
6940;DHT22;3509;48.510;9.076;2022-07-10T01:23:26;15.30;99.90
6940;DHT22;3509;48.510;9.076;2022-07-10T01:25:51;15.20;99.90
6940;DHT22;3509;48.510;9.076;2022-07-10T01:28:18;15.10;99.90
6940;DHT22;3509;48.510;9.076;2022-07-10T01:30:46;15.10;99.90
6940;DHT22;3509;48.510;9.076;2022-07-10T01:33:11;15.00;99.90
6940;DHT22;3509;48.510;9.076;2022-07-10T01:35:37;14.90;99.90
6940;DHT22;3509;48.510;9.076;2022-07-10T01:38:03;14.80;99.90
6940;DHT22;3509;48.510;9.076;2022-07-10T01:40:29;14.80;99.90
6940;DHT22;3509;48.510;9.076;2022-07-10T01:42:54;14.70;99.90
6940;DHT22;3509;48.510;9.076;2022-07-10T01:45:20;14.70;99.90
6940;DHT22;3509;48.510;9.076;2022-07-10T01:47:45;14.70;99.90
6940;DHT22;3509;48.510;9.076;2022-07-10T01:50:11;14.70;99.90
6940;DHT22;3509;48.510;9.076;2022-07-10T01:52:37;14.80;99.90
6940;DHT22;3509;48.510;9.076;2022-07-10T01:55:04;14.90;99.90
6940;DHT22;3509;48.510;9.076;2022-07-10T01:57:30;14.90;99.90
6940;DHT22;3509;48.510;9.076;2022-07-10T01:59:55;15.00;99.90
6940;DHT22;3509;48.510;9.076;2022-07-10T02:02:21;15.00;99.90
6940;DHT22;3509;48.510;9.076;2022-07-10T02:04:47;14.90;99.90
6940;DHT22;3509;48.510;9.076;2022-07-10T02:07:14;14.80;99.90
6940;DHT22;3509;48.510;9.076;2022-07-10T02:09:41;14.70;99.90
6940;DHT22;3509;48.510;9.076;2022-07-10T02:12:10;14.60;99.90
6940;DHT22;3509;48.510;9.076;2022-07-10T02:14:37;14.60;99.90
6940;DHT22;3509;48.510;9.076;2022-07-10T02:17:03;14.60;99.90
6940;DHT22;3509;48.510;9.076;2022-07-10T02:19:29;14.50;99.90
6940;DHT22;3509;48.510;9.076;2022-07-10T02:21:55;14.50;99.90
6940;DHT22;3509;48.510;9.076;2022-07-10T02:24:21;14.40;99.90
6940;DHT22;3509;48.510;9.076;2022-07-10T02:26:46;14.40;99.90
6940;DHT22;3509;48.510;9.076;2022-07-10T02:29:12;14.40;99.90
6940;DHT22;3509;48.510;9.076;2022-07-10T02:31:38;14.30;99.90
6940;DHT22;3509;48.510;9.076;2022-07-10T02:34:08;14.30;99.90
6940;DHT22;3509;48.510;9.076;2022-07-10T02:36:34;14.40;99.90
6940;DHT22;3509;48.510;9.076;2022-07-10T02:39:00;14.60;99.90
6940;DHT22;3509;48.510;9.076;2022-07-10T02:41:26;14.70;99.90
6940;DHT22;3509;48.510;9.076;2022-07-10T02:43:51;14.90;99.90
6940;DHT22;3509;48.510;9.076;2022-07-10T02:46:17;14.90;99.90
6940;DHT22;3509;48.510;9.076;2022-07-10T02:48:43;15.00;99.90
6940;DHT22;3509;48.510;9.076;2022-07-10T02:51:08;15.00;99.90
6940;DHT22;3509;48.510;9.076;2022-07-10T02:53:34;15.10;99.90
6940;DHT22;3509;48.510;9.076;2022-07-10T02:56:00;15.10;99.90
6940;DHT22;3509;48.510;9.076;2022-07-10T02:58:25;15.20;99.90
6940;DHT22;3509;48.510;9.076;2022-07-10T03:00:52;15.40;99.90
6940;DHT22;3509;48.510;9.076;2022-07-10T03:03:17;15.40;99.90
6940;DHT22;3509;48.510;9.076;2022-07-10T03:05:44;15.50;99.90
6940;DHT22;3509;48.510;9.076;2022-07-10T03:08:10;15.60;99.90
6940;DHT22;3509;48.510;9.076;2022-07-10T03:10:36;15.70;99.90
6940;DHT22;3509;48.510;9.076;2022-07-10T03:13:02;15.70;99.90
6940;DHT22;3509;48.510;9.076;2022-07-10T03:15:28;15.70;99.90
6940;DHT22;3509;48.510;9.076;2022-07-10T03:17:53;15.80;99.90
6940;DHT22;3509;48.510;9.076;2022-07-10T03:20:19;15.70;99.90
6940;DHT22;3509;48.510;9.076;2022-07-10T03:22:45;15.70;99.90
6940;DHT22;3509;48.510;9.076;2022-07-10T03:25:11;15.60;99.90
6940;DHT22;3509;48.510;9.076;2022-07-10T03:27:36;15.50;99.90
6940;DHT22;3509;48.510;9.076;2022-07-10T03:30:03;15.50;99.90
6940;DHT22;3509;48.510;9.076;2022-07-10T03:32:29;15.50;99.90
6940;DHT22;3509;48.510;9.076;2022-07-10T03:34:55;15.50;99.90
6940;DHT22;3509;48.510;9.076;2022-07-10T03:37:20;15.50;99.90
6940;DHT22;3509;48.510;9.076;2022-07-10T03:39:46;15.40;99.90
6940;DHT22;3509;48.510;9.076;2022-07-10T03:42:12;15.30;99.90
6940;DHT22;3509;48.510;9.076;2022-07-10T03:44:37;15.40;99.90
6940;DHT22;3509;48.510;9.076;2022-07-10T03:47:03;15.50;99.90
6940;DHT22;3509;48.510;9.076;2022-07-10T03:49:29;15.50;99.90
6940;DHT22;3509;48.510;9.076;2022-07-10T03:51:58;15.50;99.90
6940;DHT22;3509;48.510;9.076;2022-07-10T03:54:24;15.50;99.90
6940;DHT22;3509;48.510;9.076;2022-07-10T03:56:50;15.50;99.90
6940;DHT22;3509;48.510;9.076;2022-07-10T03:59:34;15.50;99.90
6940;DHT22;3509;48.510;9.076;2022-07-10T04:02:00;15.50;99.90
6940;DHT22;3509;48.510;9.076;2022-07-10T04:04:26;15.60;99.90
6940;DHT22;3509;48.510;9.076;2022-07-10T04:06:51;15.60;99.90
6940;DHT22;3509;48.510;9.076;2022-07-10T04:09:17;15.70;99.90
6940;DHT22;3509;48.510;9.076;2022-07-10T04:11:43;15.70;99.90
6940;DHT22;3509;48.510;9.076;2022-07-10T04:14:09;15.80;99.90
6940;DHT22;3509;48.510;9.076;2022-07-10T04:16:34;15.90;99.90
6940;DHT22;3509;48.510;9.076;2022-07-10T04:19:00;15.90;99.90
6940;DHT22;3509;48.510;9.076;2022-07-10T04:21:25;16.00;99.90
6940;DHT22;3509;48.510;9.076;2022-07-10T04:23:51;16.00;99.90
6940;DHT22;3509;48.510;9.076;2022-07-10T04:26:16;16.10;99.90
6940;DHT22;3509;48.510;9.076;2022-07-10T04:28:42;16.10;99.90
6940;DHT22;3509;48.510;9.076;2022-07-10T04:31:08;16.20;99.90
6940;DHT22;3509;48.510;9.076;2022-07-10T04:33:33;16.20;99.90
6940;DHT22;3509;48.510;9.076;2022-07-10T04:35:59;16.20;99.90
6940;DHT22;3509;48.510;9.076;2022-07-10T04:38:25;16.20;99.90
6940;DHT22;3509;48.510;9.076;2022-07-10T04:40:51;16.20;99.90
6940;DHT22;3509;48.510;9.076;2022-07-10T04:43:16;16.20;99.90
6940;DHT22;3509;48.510;9.076;2022-07-10T04:45:42;16.30;99.90
6940;DHT22;3509;48.510;9.076;2022-07-10T04:48:07;16.30;99.90
6940;DHT22;3509;48.510;9.076;2022-07-10T04:50:33;16.50;99.90
6940;DHT22;3509;48.510;9.076;2022-07-10T04:52:59;16.40;99.90
6940;DHT22;3509;48.510;9.076;2022-07-10T04:55:25;16.40;99.90
6940;DHT22;3509;48.510;9.076;2022-07-10T04:57:51;16.50;99.90
6940;DHT22;3509;48.510;9.076;2022-07-10T05:00:17;16.50;99.90
6940;DHT22;3509;48.510;9.076;2022-07-10T05:02:42;16.70;99.90
6940;DHT22;3509;48.510;9.076;2022-07-10T05:05:08;16.70;99.90
6940;DHT22;3509;48.510;9.076;2022-07-10T05:07:34;16.80;99.90
6940;DHT22;3509;48.510;9.076;2022-07-10T05:10:00;16.90;99.90
6940;DHT22;3509;48.510;9.076;2022-07-10T05:12:26;17.20;99.90
6940;DHT22;3509;48.510;9.076;2022-07-10T05:14:51;17.20;99.90
6940;DHT22;3509;48.510;9.076;2022-07-10T05:17:17;17.30;99.90
6940;DHT22;3509;48.510;9.076;2022-07-10T05:19:43;17.20;99.90
6940;DHT22;3509;48.510;9.076;2022-07-10T05:22:09;17.10;99.90
6940;DHT22;3509;48.510;9.076;2022-07-10T05:24:35;17.10;99.90
6940;DHT22;3509;48.510;9.076;2022-07-10T05:27:01;17.00;99.90
6940;DHT22;3509;48.510;9.076;2022-07-10T05:29:26;17.00;99.90
6940;DHT22;3509;48.510;9.076;2022-07-10T05:31:52;17.00;99.90
6940;DHT22;3509;48.510;9.076;2022-07-10T05:34:18;17.00;99.90
6940;DHT22;3509;48.510;9.076;2022-07-10T05:36:43;17.10;99.90
6940;DHT22;3509;48.510;9.076;2022-07-10T05:39:09;17.10;99.90
6940;DHT22;3509;48.510;9.076;2022-07-10T05:41:35;17.10;99.90
6940;DHT22;3509;48.510;9.076;2022-07-10T05:44:01;17.20;99.90
6940;DHT22;3509;48.510;9.076;2022-07-10T05:46:27;17.10;99.90
6940;DHT22;3509;48.510;9.076;2022-07-10T05:48:53;17.10;99.90
6940;DHT22;3509;48.510;9.076;2022-07-10T05:51:18;17.10;99.90
6940;DHT22;3509;48.510;9.076;2022-07-10T05:53:44;17.10;99.90
6940;DHT22;3509;48.510;9.076;2022-07-10T05:56:09;17.10;99.90
6940;DHT22;3509;48.510;9.076;2022-07-10T05:58:35;17.10;99.90
6940;DHT22;3509;48.510;9.076;2022-07-10T06:01:01;17.10;99.90
6940;DHT22;3509;48.510;9.076;2022-07-10T06:03:26;17.10;99.90
6940;DHT22;3509;48.510;9.076;2022-07-10T06:05:52;17.10;99.90
6940;DHT22;3509;48.510;9.076;2022-07-10T06:08:18;17.20;99.90
6940;DHT22;3509;48.510;9.076;2022-07-10T06:10:44;17.50;99.90
6940;DHT22;3509;48.510;9.076;2022-07-10T06:13:10;18.30;99.90
6940;DHT22;3509;48.510;9.076;2022-07-10T06:15:36;18.60;99.90
6940;DHT22;3509;48.510;9.076;2022-07-10T06:18:02;18.60;99.90
6940;DHT22;3509;48.510;9.076;2022-07-10T06:20:28;18.60;99.90
6940;DHT22;3509;48.510;9.076;2022-07-10T06:22:54;19.50;99.90
6940;DHT22;3509;48.510;9.076;2022-07-10T06:25:20;20.90;98.70
6940;DHT22;3509;48.510;9.076;2022-07-10T06:27:46;22.00;95.30
6940;DHT22;3509;48.510;9.076;2022-07-10T06:30:11;22.20;93.90
6940;DHT22;3509;48.510;9.076;2022-07-10T06:32:38;22.60;93.30
6940;DHT22;3509;48.510;9.076;2022-07-10T06:35:04;22.70;91.80
6940;DHT22;3509;48.510;9.076;2022-07-10T06:37:33;21.90;92.90
6940;DHT22;3509;48.510;9.076;2022-07-10T06:39:59;21.00;94.70
6940;DHT22;3509;48.510;9.076;2022-07-10T06:42:25;20.40;95.30
6940;DHT22;3509;48.510;9.076;2022-07-10T06:44:50;19.60;96.70
6940;DHT22;3509;48.510;9.076;2022-07-10T06:47:18;19.10;97.70
6940;DHT22;3509;48.510;9.076;2022-07-10T06:50:04;18.80;98.70
6940;DHT22;3509;48.510;9.076;2022-07-10T06:52:34;18.70;98.70
6940;DHT22;3509;48.510;9.076;2022-07-10T06:55:01;18.80;98.40
6940;DHT22;3509;48.510;9.076;2022-07-10T06:57:27;18.70;98.70
6940;DHT22;3509;48.510;9.076;2022-07-10T06:59:53;18.70;98.50
6940;DHT22;3509;48.510;9.076;2022-07-10T07:02:19;18.50;98.80
6940;DHT22;3509;48.510;9.076;2022-07-10T07:04:45;18.30;98.80
6940;DHT22;3509;48.510;9.076;2022-07-10T07:07:12;18.30;98.70
6940;DHT22;3509;48.510;9.076;2022-07-10T07:09:38;18.30;98.30
6940;DHT22;3509;48.510;9.076;2022-07-10T07:12:05;18.40;98.80
6940;DHT22;3509;48.510;9.076;2022-07-10T07:14:30;18.40;98.30
6940;DHT22;3509;48.510;9.076;2022-07-10T07:16:56;18.40;98.20
6940;DHT22;3509;48.510;9.076;2022-07-10T07:19:35;18.50;98.10
6940;DHT22;3509;48.510;9.076;2022-07-10T07:22:20;18.50;98.30
6940;DHT22;3509;48.510;9.076;2022-07-10T07:25:05;18.50;98.50
6940;DHT22;3509;48.510;9.076;2022-07-10T07:27:33;18.70;97.50
6940;DHT22;3509;48.510;9.076;2022-07-10T07:30:10;18.70;97.30
6940;DHT22;3509;48.510;9.076;2022-07-10T07:32:37;18.60;97.20
6940;DHT22;3509;48.510;9.076;2022-07-10T07:35:04;18.70;97.90
6940;DHT22;3509;48.510;9.076;2022-07-10T07:37:39;18.70;96.90
6940;DHT22;3509;48.510;9.076;2022-07-10T07:40:07;18.60;97.20
6940;DHT22;3509;48.510;9.076;2022-07-10T07:42:33;18.60;97.30
6940;DHT22;3509;48.510;9.076;2022-07-10T07:44:59;19.00;96.70
6940;DHT22;3509;48.510;9.076;2022-07-10T07:47:25;20.20;96.50
6940;DHT22;3509;48.510;9.076;2022-07-10T07:49:51;21.40;93.40
6940;DHT22;3509;48.510;9.076;2022-07-10T07:52:16;22.80;90.80
6940;DHT22;3509;48.510;9.076;2022-07-10T07:54:42;24.10;81.70
6940;DHT22;3509;48.510;9.076;2022-07-10T07:57:08;24.50;80.10
6940;DHT22;3509;48.510;9.076;2022-07-10T07:59:34;25.40;77.50
6940;DHT22;3509;48.510;9.076;2022-07-10T08:02:00;26.20;66.00
6940;DHT22;3509;48.510;9.076;2022-07-10T08:04:26;26.20;64.70
6940;DHT22;3509;48.510;9.076;2022-07-10T08:06:51;25.50;64.80
6940;DHT22;3509;48.510;9.076;2022-07-10T08:09:18;24.60;67.00
6940;DHT22;3509;48.510;9.076;2022-07-10T08:11:44;24.00;68.10
6940;DHT22;3509;48.510;9.076;2022-07-10T08:14:10;23.40;71.20
6940;DHT22;3509;48.510;9.076;2022-07-10T08:16:35;23.30;69.90
6940;DHT22;3509;48.510;9.076;2022-07-10T08:19:01;23.50;68.80
6940;DHT22;3509;48.510;9.076;2022-07-10T08:21:27;23.60;71.20
6940;DHT22;3509;48.510;9.076;2022-07-10T08:23:52;23.70;70.60
6940;DHT22;3509;48.510;9.076;2022-07-10T08:26:19;23.60;69.60
6940;DHT22;3509;48.510;9.076;2022-07-10T08:28:45;23.70;68.60
6940;DHT22;3509;48.510;9.076;2022-07-10T08:31:11;23.50;68.40
6940;DHT22;3509;48.510;9.076;2022-07-10T08:33:36;23.60;69.00
6940;DHT22;3509;48.510;9.076;2022-07-10T08:36:02;23.50;69.10
6940;DHT22;3509;48.510;9.076;2022-07-10T08:38:29;23.20;69.80
6940;DHT22;3509;48.510;9.076;2022-07-10T08:40:56;23.00;69.60
6940;DHT22;3509;48.510;9.076;2022-07-10T08:43:24;23.40;71.00
6940;DHT22;3509;48.510;9.076;2022-07-10T08:45:51;24.30;67.40
6940;DHT22;3509;48.510;9.076;2022-07-10T08:48:22;25.60;61.90
6940;DHT22;3509;48.510;9.076;2022-07-10T08:50:52;26.00;60.40
6940;DHT22;3509;48.510;9.076;2022-07-10T08:53:38;26.00;60.50
6940;DHT22;3509;48.510;9.076;2022-07-10T08:56:04;25.40;59.50
6940;DHT22;3509;48.510;9.076;2022-07-10T08:58:33;24.70;62.20
6940;DHT22;3509;48.510;9.076;2022-07-10T09:00:59;24.20;62.90
6940;DHT22;3509;48.510;9.076;2022-07-10T09:03:25;24.10;65.10
6940;DHT22;3509;48.510;9.076;2022-07-10T09:05:50;24.30;62.20
6940;DHT22;3509;48.510;9.076;2022-07-10T09:08:27;25.30;64.70
6940;DHT22;3509;48.510;9.076;2022-07-10T09:13:50;26.50;57.40
6940;DHT22;3509;48.510;9.076;2022-07-10T09:16:30;25.30;58.00
6940;DHT22;3509;48.510;9.076;2022-07-10T09:18:56;24.30;60.80
6940;DHT22;3509;48.510;9.076;2022-07-10T09:21:22;23.60;61.60
6940;DHT22;3509;48.510;9.076;2022-07-10T09:23:49;22.90;62.20
6940;DHT22;3509;48.510;9.076;2022-07-10T09:26:15;22.50;62.20
6940;DHT22;3509;48.510;9.076;2022-07-10T09:28:41;22.60;63.10
6940;DHT22;3509;48.510;9.076;2022-07-10T09:31:06;22.70;61.80
6940;DHT22;3509;48.510;9.076;2022-07-10T09:33:32;22.60;62.40
6940;DHT22;3509;48.510;9.076;2022-07-10T09:36:02;22.70;64.10
6940;DHT22;3509;48.510;9.076;2022-07-10T09:43:45;24.70;58.90
6940;DHT22;3509;48.510;9.076;2022-07-10T09:46:11;25.40;56.60
6940;DHT22;3509;48.510;9.076;2022-07-10T09:48:37;25.30;56.40
6940;DHT22;3509;48.510;9.076;2022-07-10T09:51:05;25.00;57.80
6940;DHT22;3509;48.510;9.076;2022-07-10T09:53:32;25.00;59.20
6940;DHT22;3509;48.510;9.076;2022-07-10T09:56:00;25.80;58.10
6940;DHT22;3509;48.510;9.076;2022-07-10T09:58:32;27.20;53.90
6940;DHT22;3509;48.510;9.076;2022-07-10T10:00:58;28.30;52.30
6940;DHT22;3509;48.510;9.076;2022-07-10T10:03:26;28.90;50.00
6940;DHT22;3509;48.510;9.076;2022-07-10T10:05:57;29.20;47.40
6940;DHT22;3509;48.510;9.076;2022-07-10T10:11:14;29.20;46.50
6940;DHT22;3509;48.510;9.076;2022-07-10T10:13:41;28.40;46.50
6940;DHT22;3509;48.510;9.076;2022-07-10T10:16:08;27.20;49.50
6940;DHT22;3509;48.510;9.076;2022-07-10T10:18:36;26.30;49.70
6940;DHT22;3509;48.510;9.076;2022-07-10T10:21:03;25.30;52.80
6940;DHT22;3509;48.510;9.076;2022-07-10T10:23:32;24.80;53.90
6940;DHT22;3509;48.510;9.076;2022-07-10T10:25:59;24.60;53.90
6940;DHT22;3509;48.510;9.076;2022-07-10T10:28:26;25.10;52.40
6940;DHT22;3509;48.510;9.076;2022-07-10T10:31:01;26.10;52.90
6940;DHT22;3509;48.510;9.076;2022-07-10T10:36:02;27.50;47.80
6940;DHT22;3509;48.510;9.076;2022-07-10T10:46:33;28.60;44.90
6940;DHT22;3509;48.510;9.076;2022-07-10T10:49:05;28.30;45.30
6940;DHT22;3509;48.510;9.076;2022-07-10T10:52:01;28.20;46.10
6940;DHT22;3509;48.510;9.076;2022-07-10T10:54:28;27.90;46.40
6940;DHT22;3509;48.510;9.076;2022-07-10T10:57:16;26.90;48.00
6940;DHT22;3509;48.510;9.076;2022-07-10T10:59:53;26.50;47.30
6940;DHT22;3509;48.510;9.076;2022-07-10T11:04:49;26.40;46.90
6940;DHT22;3509;48.510;9.076;2022-07-10T11:10:48;25.20;49.80
6940;DHT22;3509;48.510;9.076;2022-07-10T11:13:18;25.30;53.00
6940;DHT22;3509;48.510;9.076;2022-07-10T11:15:48;25.70;51.80
6940;DHT22;3509;48.510;9.076;2022-07-10T11:18:17;26.00;52.80
6940;DHT22;3509;48.510;9.076;2022-07-10T11:20:49;26.20;52.30
6940;DHT22;3509;48.510;9.076;2022-07-10T11:26:07;26.90;50.20
6940;DHT22;3509;48.510;9.076;2022-07-10T11:28:54;27.70;49.40
6940;DHT22;3509;48.510;9.076;2022-07-10T11:31:21;27.50;46.60
6940;DHT22;3509;48.510;9.076;2022-07-10T11:33:49;26.30;48.10
6940;DHT22;3509;48.510;9.076;2022-07-10T11:36:21;25.10;50.90
6940;DHT22;3509;48.510;9.076;2022-07-10T11:39:03;24.60;53.90
6940;DHT22;3509;48.510;9.076;2022-07-10T11:41:30;24.80;54.20
6940;DHT22;3509;48.510;9.076;2022-07-10T11:43:57;25.40;51.20
6940;DHT22;3509;48.510;9.076;2022-07-10T11:46:34;25.90;50.50
6940;DHT22;3509;48.510;9.076;2022-07-10T11:49:04;25.30;50.70
6940;DHT22;3509;48.510;9.076;2022-07-10T11:51:38;25.00;52.50
6940;DHT22;3509;48.510;9.076;2022-07-10T11:54:08;25.20;52.60
6940;DHT22;3509;48.510;9.076;2022-07-10T11:56:37;25.50;53.10
6940;DHT22;3509;48.510;9.076;2022-07-10T11:59:14;26.00;50.10
6940;DHT22;3509;48.510;9.076;2022-07-10T12:01:48;26.80;47.00
6940;DHT22;3509;48.510;9.076;2022-07-10T12:04:16;26.60;48.40
6940;DHT22;3509;48.510;9.076;2022-07-10T12:06:44;26.10;47.70
6940;DHT22;3509;48.510;9.076;2022-07-10T12:09:19;26.20;51.10
6940;DHT22;3509;48.510;9.076;2022-07-10T12:14:24;25.30;51.10
6940;DHT22;3509;48.510;9.076;2022-07-10T12:16:51;25.10;53.20
6940;DHT22;3509;48.510;9.076;2022-07-10T12:19:22;25.00;53.90
6940;DHT22;3509;48.510;9.076;2022-07-10T12:21:48;24.90;53.80
6940;DHT22;3509;48.510;9.076;2022-07-10T12:24:16;24.70;51.10
6940;DHT22;3509;48.510;9.076;2022-07-10T12:26:43;24.10;51.10
6940;DHT22;3509;48.510;9.076;2022-07-10T12:31:44;23.40;55.50
6940;DHT22;3509;48.510;9.076;2022-07-10T12:34:11;23.30;52.80
6940;DHT22;3509;48.510;9.076;2022-07-10T12:36:43;23.20;53.40
6940;DHT22;3509;48.510;9.076;2022-07-10T12:39:09;23.00;53.70
6940;DHT22;3509;48.510;9.076;2022-07-10T12:42:02;22.90;53.80
6940;DHT22;3509;48.510;9.076;2022-07-10T12:44:49;22.80;54.00
6940;DHT22;3509;48.510;9.076;2022-07-10T12:47:17;22.50;53.80
6940;DHT22;3509;48.510;9.076;2022-07-10T12:49:53;22.40;55.80
6940;DHT22;3509;48.510;9.076;2022-07-10T12:52:23;22.40;53.80
6940;DHT22;3509;48.510;9.076;2022-07-10T12:57:46;22.40;55.80
6940;DHT22;3509;48.510;9.076;2022-07-10T13:00:14;22.40;54.50
6940;DHT22;3509;48.510;9.076;2022-07-10T13:02:40;22.50;54.60
6940;DHT22;3509;48.510;9.076;2022-07-10T13:05:07;22.60;55.40
6940;DHT22;3509;48.510;9.076;2022-07-10T13:07:34;22.70;54.00
6940;DHT22;3509;48.510;9.076;2022-07-10T13:10:06;22.60;52.00
6940;DHT22;3509;48.510;9.076;2022-07-10T13:12:34;22.50;50.80
6940;DHT22;3509;48.510;9.076;2022-07-10T13:15:03;22.40;53.50
6940;DHT22;3509;48.510;9.076;2022-07-10T13:17:29;22.50;51.90
6940;DHT22;3509;48.510;9.076;2022-07-10T13:19:54;22.20;52.60
6940;DHT22;3509;48.510;9.076;2022-07-10T13:22:20;22.00;54.10
6940;DHT22;3509;48.510;9.076;2022-07-10T13:24:46;21.90;54.00
6940;DHT22;3509;48.510;9.076;2022-07-10T13:27:11;21.60;53.40
6940;DHT22;3509;48.510;9.076;2022-07-10T13:29:37;21.50;53.80
6940;DHT22;3509;48.510;9.076;2022-07-10T13:32:03;21.70;55.00
6940;DHT22;3509;48.510;9.076;2022-07-10T13:34:29;21.70;54.10
6940;DHT22;3509;48.510;9.076;2022-07-10T13:36:55;21.90;54.20
6940;DHT22;3509;48.510;9.076;2022-07-10T13:39:22;22.00;54.30
6940;DHT22;3509;48.510;9.076;2022-07-10T13:41:47;22.10;54.40
6940;DHT22;3509;48.510;9.076;2022-07-10T13:44:13;22.00;52.90
6940;DHT22;3509;48.510;9.076;2022-07-10T13:46:39;22.00;53.80
6940;DHT22;3509;48.510;9.076;2022-07-10T13:49:06;22.00;53.40
6940;DHT22;3509;48.510;9.076;2022-07-10T13:51:31;22.10;53.70
6940;DHT22;3509;48.510;9.076;2022-07-10T13:53:57;22.00;53.00
6940;DHT22;3509;48.510;9.076;2022-07-10T13:56:23;22.10;54.30
6940;DHT22;3509;48.510;9.076;2022-07-10T13:58:51;22.10;53.40
6940;DHT22;3509;48.510;9.076;2022-07-10T14:01:17;22.20;53.80
6940;DHT22;3509;48.510;9.076;2022-07-10T14:03:42;22.20;51.60
6940;DHT22;3509;48.510;9.076;2022-07-10T14:06:08;22.10;52.40
6940;DHT22;3509;48.510;9.076;2022-07-10T14:08:34;22.20;53.10
6940;DHT22;3509;48.510;9.076;2022-07-10T14:10:59;22.20;51.00
6940;DHT22;3509;48.510;9.076;2022-07-10T14:13:25;21.80;52.30
6940;DHT22;3509;48.510;9.076;2022-07-10T14:15:51;21.70;52.00
6940;DHT22;3509;48.510;9.076;2022-07-10T14:18:17;21.70;54.60
6940;DHT22;3509;48.510;9.076;2022-07-10T14:21:06;21.80;53.10
6940;DHT22;3509;48.510;9.076;2022-07-10T14:23:39;21.90;53.40
6940;DHT22;3509;48.510;9.076;2022-07-10T14:26:07;21.90;51.10
6940;DHT22;3509;48.510;9.076;2022-07-10T14:28:33;22.00;51.50
6940;DHT22;3509;48.510;9.076;2022-07-10T14:31:03;22.00;50.80
6940;DHT22;3509;48.510;9.076;2022-07-10T14:33:30;22.10;52.30
6940;DHT22;3509;48.510;9.076;2022-07-10T14:35:56;22.10;51.20
6940;DHT22;3509;48.510;9.076;2022-07-10T14:38:22;22.10;53.10
6940;DHT22;3509;48.510;9.076;2022-07-10T14:40:48;22.20;52.30
6940;DHT22;3509;48.510;9.076;2022-07-10T14:43:17;22.30;52.30
6940;DHT22;3509;48.510;9.076;2022-07-10T14:45:42;22.10;51.90
6940;DHT22;3509;48.510;9.076;2022-07-10T14:48:08;22.10;52.50
6940;DHT22;3509;48.510;9.076;2022-07-10T14:50:34;22.10;53.20
6940;DHT22;3509;48.510;9.076;2022-07-10T14:52:59;22.00;51.40
6940;DHT22;3509;48.510;9.076;2022-07-10T14:55:25;21.70;52.30
6940;DHT22;3509;48.510;9.076;2022-07-10T14:57:51;21.60;51.20
6940;DHT22;3509;48.510;9.076;2022-07-10T15:00:16;21.50;51.70
6940;DHT22;3509;48.510;9.076;2022-07-10T15:02:44;21.50;53.20
6940;DHT22;3509;48.510;9.076;2022-07-10T15:05:10;21.60;53.50
6940;DHT22;3509;48.510;9.076;2022-07-10T15:07:35;21.60;52.80
6940;DHT22;3509;48.510;9.076;2022-07-10T15:10:01;21.70;54.00
6940;DHT22;3509;48.510;9.076;2022-07-10T15:12:27;21.60;52.50
6940;DHT22;3509;48.510;9.076;2022-07-10T15:14:52;21.60;52.80
6940;DHT22;3509;48.510;9.076;2022-07-10T15:17:18;21.50;54.00
6940;DHT22;3509;48.510;9.076;2022-07-10T15:19:44;21.50;52.80
6940;DHT22;3509;48.510;9.076;2022-07-10T15:22:09;21.40;54.00
6940;DHT22;3509;48.510;9.076;2022-07-10T15:24:36;21.20;52.40
6940;DHT22;3509;48.510;9.076;2022-07-10T15:27:02;21.20;54.40
6940;DHT22;3509;48.510;9.076;2022-07-10T15:29:28;21.30;54.80
6940;DHT22;3509;48.510;9.076;2022-07-10T15:31:54;21.20;53.90
6940;DHT22;3509;48.510;9.076;2022-07-10T15:34:19;21.30;53.60
6940;DHT22;3509;48.510;9.076;2022-07-10T15:36:45;21.40;54.80
6940;DHT22;3509;48.510;9.076;2022-07-10T15:39:12;21.20;53.20
6940;DHT22;3509;48.510;9.076;2022-07-10T15:41:38;21.20;53.70
6940;DHT22;3509;48.510;9.076;2022-07-10T15:44:06;21.00;53.70
6940;DHT22;3509;48.510;9.076;2022-07-10T15:46:31;20.80;53.80
6940;DHT22;3509;48.510;9.076;2022-07-10T15:48:57;20.70;54.10
6940;DHT22;3509;48.510;9.076;2022-07-10T15:51:24;20.80;55.60
6940;DHT22;3509;48.510;9.076;2022-07-10T15:53:50;20.80;54.10
6940;DHT22;3509;48.510;9.076;2022-07-10T15:56:16;20.80;55.70
6940;DHT22;3509;48.510;9.076;2022-07-10T15:58:42;20.90;54.80
6940;DHT22;3509;48.510;9.076;2022-07-10T16:01:08;20.80;53.60
6940;DHT22;3509;48.510;9.076;2022-07-10T16:03:36;20.80;54.30
6940;DHT22;3509;48.510;9.076;2022-07-10T16:06:01;20.90;54.60
6940;DHT22;3509;48.510;9.076;2022-07-10T16:08:27;20.90;55.20
6940;DHT22;3509;48.510;9.076;2022-07-10T16:10:53;20.70;54.00
6940;DHT22;3509;48.510;9.076;2022-07-10T16:13:18;20.50;54.00
6940;DHT22;3509;48.510;9.076;2022-07-10T16:15:44;20.50;56.00
6940;DHT22;3509;48.510;9.076;2022-07-10T16:18:10;20.40;54.10
6940;DHT22;3509;48.510;9.076;2022-07-10T16:20:36;20.40;54.60
6940;DHT22;3509;48.510;9.076;2022-07-10T16:23:03;20.40;55.70
6940;DHT22;3509;48.510;9.076;2022-07-10T16:25:29;20.30;55.10
6940;DHT22;3509;48.510;9.076;2022-07-10T16:28:14;20.30;56.40
6940;DHT22;3509;48.510;9.076;2022-07-10T16:30:39;20.40;55.30
6940;DHT22;3509;48.510;9.076;2022-07-10T16:33:05;20.40;56.10
6940;DHT22;3509;48.510;9.076;2022-07-10T16:35:31;20.30;55.10
6940;DHT22;3509;48.510;9.076;2022-07-10T16:37:56;20.30;55.20
6940;DHT22;3509;48.510;9.076;2022-07-10T16:40:22;20.20;55.20